Time;durP1;ratioP1;P1;durP2;ratioP2;P2;SDS_P1;SDS_P2;PMS_P1;PMS_P2;Temp;Humidity;BMP_temperature;BMP_pressure;BME280_temperature;BME280_humidity;BME280_pressure;Samples;Min_cycle;Max_cycle;Signal;HPM_P1;HPM_P2
2022/08/06 00:01:08;;;;;;;;;;;18.10;99.90;;;;;;5060860;28;19935;-72
2022/08/06 00:03:34;;;;;;;;;;;18.20;99.90;;;;;;5056951;28;20273;-73
2022/08/06 00:05:59;;;;;;;;;;;18.10;99.90;;;;;;5054552;28;19963;-74
2022/08/06 00:08:25;;;;;;;;;;;18.10;99.90;;;;;;5054477;28;19917;-72
2022/08/06 00:10:50;;;;;;;;;;;18.10;99.90;;;;;;5054036;28;19912;-72
2022/08/06 00:13:17;;;;;;;;;;;18.10;99.90;;;;;;5053935;28;20385;-75
2022/08/06 00:15:42;;;;;;;;;;;18.10;99.90;;;;;;5054863;28;19909;-72
2022/08/06 00:18:08;;;;;;;;;;;18.00;99.90;;;;;;5054270;28;20062;-72
2022/08/06 00:20:33;;;;;;;;;;;18.00;99.90;;;;;;5054333;28;20278;-72
2022/08/06 00:22:59;;;;;;;;;;;17.90;99.90;;;;;;5053907;28;19913;-72
2022/08/06 00:25:25;;;;;;;;;;;17.90;99.90;;;;;;5053157;28;20281;-72
2022/08/06 00:27:50;;;;;;;;;;;17.90;99.90;;;;;;5054341;28;19916;-72
2022/08/06 00:30:16;;;;;;;;;;;17.90;99.90;;;;;;5052290;28;19916;-73
2022/08/06 00:32:42;;;;;;;;;;;17.90;99.90;;;;;;5053387;28;20298;-74
2022/08/06 00:35:07;;;;;;;;;;;17.90;99.90;;;;;;5053658;28;19909;-72
2022/08/06 00:37:33;;;;;;;;;;;17.90;99.90;;;;;;5053854;28;19909;-72
2022/08/06 00:39:59;;;;;;;;;;;17.90;99.90;;;;;;5053303;28;19963;-72
2022/08/06 00:42:25;;;;;;;;;;;17.90;99.90;;;;;;5053080;28;19913;-76
2022/08/06 00:44:50;;;;;;;;;;;17.80;99.90;;;;;;5052209;28;19928;-72
2022/08/06 00:47:16;;;;;;;;;;;17.80;99.90;;;;;;5053800;28;20105;-72
2022/08/06 00:49:41;;;;;;;;;;;17.80;99.90;;;;;;5053687;28;19912;-72
2022/08/06 00:52:07;;;;;;;;;;;17.80;99.90;;;;;;5053212;28;20370;-73
2022/08/06 00:54:32;;;;;;;;;;;17.80;99.90;;;;;;5053458;28;19996;-72
2022/08/06 00:56:58;;;;;;;;;;;17.80;99.90;;;;;;5053404;28;19908;-72
2022/08/06 00:59:23;;;;;;;;;;;17.70;99.90;;;;;;5053369;28;19963;-73
2022/08/06 01:01:49;;;;;;;;;;;17.70;99.90;;;;;;5055654;28;20393;-75
2022/08/06 01:04:15;;;;;;;;;;;17.70;99.90;;;;;;5054320;28;19916;-72
2022/08/06 01:06:40;;;;;;;;;;;17.70;99.90;;;;;;5053479;28;19932;-72
2022/08/06 01:09:06;;;;;;;;;;;17.70;99.90;;;;;;5052906;28;20393;-72
2022/08/06 01:11:31;;;;;;;;;;;17.70;99.90;;;;;;5052661;28;20308;-72
2022/08/06 01:13:57;;;;;;;;;;;17.70;99.90;;;;;;5052862;28;20377;-73
2022/08/06 01:16:41;;;;;;;;;;;17.70;99.90;;;;;;5053337;28;19916;-72
2022/08/06 01:19:06;;;;;;;;;;;17.60;99.90;;;;;;5053088;28;19952;-72
2022/08/06 01:21:58;;;;;;;;;;;17.60;99.90;;;;;;5052768;28;19913;-73
2022/08/06 01:24:30;;;;;;;;;;;17.60;99.90;;;;;;5024323;28;19920;-73
2022/08/06 01:27:10;;;;;;;;;;;17.60;99.90;;;;;;5052919;28;19909;-73
2022/08/06 01:29:37;;;;;;;;;;;17.60;99.90;;;;;;5052699;28;19909;-73
2022/08/06 01:32:07;;;;;;;;;;;17.50;99.90;;;;;;5048956;28;19909;-73
2022/08/06 01:34:33;;;;;;;;;;;17.50;99.90;;;;;;5052505;28;19912;-73
2022/08/06 01:37:03;;;;;;;;;;;17.50;99.90;;;;;;5052826;28;19954;-73
2022/08/06 01:39:30;;;;;;;;;;;17.50;99.90;;;;;;5052784;28;20334;-73
2022/08/06 01:41:56;;;;;;;;;;;17.50;99.90;;;;;;5052472;28;20350;-75
2022/08/06 01:44:23;;;;;;;;;;;17.50;99.90;;;;;;5052019;28;19955;-75
2022/08/06 01:47:00;;;;;;;;;;;17.40;99.90;;;;;;5048103;28;19952;-73
2022/08/06 01:49:28;;;;;;;;;;;17.40;99.90;;;;;;5052637;28;20285;-76
2022/08/06 01:51:56;;;;;;;;;;;17.40;99.90;;;;;;5052097;28;19908;-72
2022/08/06 01:54:22;;;;;;;;;;;17.40;99.90;;;;;;5051559;28;20007;-72
2022/08/06 01:56:50;;;;;;;;;;;17.40;99.90;;;;;;5052347;28;19966;-76
2022/08/06 01:59:17;;;;;;;;;;;17.40;99.90;;;;;;5050994;28;19978;-73
2022/08/06 02:01:43;;;;;;;;;;;17.40;99.90;;;;;;5045965;28;19909;-73
2022/08/06 02:04:09;;;;;;;;;;;17.40;99.90;;;;;;5057377;28;19962;-73
2022/08/06 02:06:37;;;;;;;;;;;17.40;99.90;;;;;;5052330;28;19995;-73
2022/08/06 02:09:04;;;;;;;;;;;17.30;99.90;;;;;;5052037;28;19998;-73
2022/08/06 02:11:32;;;;;;;;;;;17.30;99.90;;;;;;5050355;28;19915;-72
2022/08/06 02:13:59;;;;;;;;;;;17.30;99.90;;;;;;5051292;28;20501;-72
2022/08/06 02:16:27;;;;;;;;;;;17.30;99.90;;;;;;5052102;28;19909;-72
2022/08/06 02:18:53;;;;;;;;;;;17.30;99.90;;;;;;5051822;28;19913;-73
2022/08/06 02:21:20;;;;;;;;;;;17.30;99.90;;;;;;5050951;28;19916;-73
2022/08/06 02:23:46;;;;;;;;;;;17.30;99.90;;;;;;5051556;28;20384;-72
2022/08/06 02:26:13;;;;;;;;;;;17.20;99.90;;;;;;5051621;28;19913;-72
2022/08/06 02:28:40;;;;;;;;;;;17.20;99.90;;;;;;5052183;28;20682;-72
2022/08/06 02:31:06;;;;;;;;;;;17.20;99.90;;;;;;5050038;28;19963;-72
2022/08/06 02:33:32;;;;;;;;;;;17.20;99.90;;;;;;5052129;28;20366;-72
2022/08/06 02:36:01;;;;;;;;;;;17.20;99.90;;;;;;5051765;28;19909;-73
2022/08/06 02:38:38;;;;;;;;;;;17.20;99.90;;;;;;5051292;28;19934;-72
2022/08/06 02:41:24;;;;;;;;;;;17.20;99.90;;;;;;5050369;28;19916;-72
2022/08/06 02:43:56;;;;;;;;;;;17.20;99.90;;;;;;5050038;28;19915;-72
2022/08/06 02:46:27;;;;;;;;;;;17.10;99.90;;;;;;5051647;28;19916;-71
2022/08/06 02:49:01;;;;;;;;;;;17.10;99.90;;;;;;5050304;28;19952;-71
2022/08/06 02:51:30;;;;;;;;;;;17.10;99.90;;;;;;5050974;28;19919;-71
2022/08/06 02:53:59;;;;;;;;;;;17.10;99.90;;;;;;5050756;28;19909;-71
2022/08/06 02:56:25;;;;;;;;;;;17.00;99.90;;;;;;5051327;28;20274;-71
2022/08/06 02:58:52;;;;;;;;;;;17.00;99.90;;;;;;5051292;28;19917;-71
2022/08/06 03:01:22;;;;;;;;;;;17.00;99.90;;;;;;5049227;28;19916;-71
2022/08/06 03:03:48;;;;;;;;;;;17.00;99.90;;;;;;5052790;28;19909;-71
2022/08/06 03:06:15;;;;;;;;;;;16.90;99.90;;;;;;5051193;28;19986;-71
2022/08/06 03:08:41;;;;;;;;;;;16.90;99.90;;;;;;5051155;28;19924;-71
2022/08/06 03:11:07;;;;;;;;;;;16.80;99.90;;;;;;5051076;28;20293;-71
2022/08/06 03:13:34;;;;;;;;;;;16.80;99.90;;;;;;5048835;28;20332;-71
2022/08/06 03:16:00;;;;;;;;;;;16.80;99.90;;;;;;5048184;28;19908;-71
2022/08/06 03:18:26;;;;;;;;;;;16.70;99.90;;;;;;5050985;28;19920;-71
2022/08/06 03:20:51;;;;;;;;;;;16.70;99.90;;;;;;5051271;28;19913;-71
2022/08/06 03:23:17;;;;;;;;;;;16.80;99.90;;;;;;5050525;28;20336;-71
2022/08/06 03:25:43;;;;;;;;;;;16.70;99.90;;;;;;5051358;28;19909;-71
2022/08/06 03:28:10;;;;;;;;;;;16.70;99.90;;;;;;5051085;28;20003;-71
2022/08/06 03:30:37;;;;;;;;;;;16.70;99.90;;;;;;5053582;28;19999;-71
2022/08/06 03:33:04;;;;;;;;;;;16.70;99.90;;;;;;5059175;28;20372;-71
2022/08/06 03:35:32;;;;;;;;;;;16.60;99.90;;;;;;5055370;28;19978;-71
2022/08/06 03:37:58;;;;;;;;;;;16.60;99.90;;;;;;5055209;28;19913;-71
2022/08/06 03:40:24;;;;;;;;;;;16.60;99.90;;;;;;5055290;28;20281;-71
2022/08/06 03:42:50;;;;;;;;;;;16.60;99.90;;;;;;5054515;28;19970;-71
2022/08/06 03:45:15;;;;;;;;;;;16.50;99.90;;;;;;5054553;28;20009;-71
2022/08/06 03:47:42;;;;;;;;;;;16.50;99.90;;;;;;5054967;28;20467;-71
2022/08/06 03:50:12;;;;;;;;;;;16.50;99.90;;;;;;5052940;28;19908;-71
2022/08/06 03:52:41;;;;;;;;;;;16.40;99.90;;;;;;5054713;28;19944;-71
2022/08/06 03:55:08;;;;;;;;;;;16.40;99.90;;;;;;5054470;28;20285;-71
2022/08/06 03:57:54;;;;;;;;;;;16.40;99.90;;;;;;5054573;28;19916;-72
2022/08/06 04:00:21;;;;;;;;;;;16.40;99.90;;;;;;5052607;28;19913;-71
2022/08/06 04:02:49;;;;;;;;;;;16.30;99.90;;;;;;5057364;28;19908;-71
2022/08/06 04:05:16;;;;;;;;;;;16.30;99.90;;;;;;5054222;28;19999;-71
2022/08/06 04:07:43;;;;;;;;;;;16.30;99.90;;;;;;5053223;28;20330;-71
2022/08/06 04:10:09;;;;;;;;;;;16.40;99.90;;;;;;5053415;28;19916;-71
2022/08/06 04:12:34;;;;;;;;;;;16.30;99.90;;;;;;5053688;28;19919;-71
2022/08/06 04:15:00;;;;;;;;;;;16.30;99.90;;;;;;5054256;28;19992;-71
2022/08/06 04:17:27;;;;;;;;;;;16.30;99.90;;;;;;5054422;28;19991;-71
2022/08/06 04:19:52;;;;;;;;;;;16.30;99.90;;;;;;5054306;28;20004;-71
2022/08/06 04:22:18;;;;;;;;;;;16.30;99.90;;;;;;5053762;28;19959;-71
2022/08/06 04:24:43;;;;;;;;;;;16.30;99.90;;;;;;5053362;28;19969;-71
2022/08/06 04:27:09;;;;;;;;;;;16.30;99.90;;;;;;5053763;28;19908;-71
2022/08/06 04:29:36;;;;;;;;;;;16.30;99.90;;;;;;5053884;28;20355;-71
2022/08/06 04:32:02;;;;;;;;;;;16.30;99.90;;;;;;5050021;28;19924;-71
2022/08/06 04:34:28;;;;;;;;;;;16.30;99.90;;;;;;5052541;28;19909;-71
2022/08/06 04:36:54;;;;;;;;;;;16.30;99.90;;;;;;5052458;28;19909;-71
2022/08/06 04:39:20;;;;;;;;;;;16.30;99.90;;;;;;5052321;28;19919;-72
2022/08/06 04:41:46;;;;;;;;;;;16.30;99.90;;;;;;5053063;28;19909;-71
2022/08/06 04:44:12;;;;;;;;;;;16.30;99.90;;;;;;5052381;28;19909;-71
2022/08/06 04:46:38;;;;;;;;;;;16.30;99.90;;;;;;5053817;28;19931;-72
2022/08/06 04:49:03;;;;;;;;;;;16.30;99.90;;;;;;5053485;28;20365;-73
2022/08/06 04:51:29;;;;;;;;;;;16.30;99.90;;;;;;5052961;28;19908;-72
2022/08/06 04:53:54;;;;;;;;;;;16.30;99.90;;;;;;5052928;28;20366;-71
2022/08/06 04:56:20;;;;;;;;;;;16.30;99.90;;;;;;5053111;28;19945;-71
2022/08/06 04:58:45;;;;;;;;;;;16.30;99.90;;;;;;5052048;28;20015;-72
2022/08/06 05:01:11;;;;;;;;;;;16.30;99.90;;;;;;5049382;28;19950;-71
2022/08/06 05:03:36;;;;;;;;;;;16.40;99.90;;;;;;5058319;28;20337;-72
2022/08/06 05:06:08;;;;;;;;;;;16.40;99.90;;;;;;5053372;28;19909;-72
2022/08/06 05:08:36;;;;;;;;;;;16.40;99.90;;;;;;5047120;28;19917;-72
2022/08/06 05:11:11;;;;;;;;;;;16.50;99.90;;;;;;5052977;28;19913;-72
2022/08/06 05:13:38;;;;;;;;;;;16.50;99.90;;;;;;5052131;28;19909;-71
2022/08/06 05:16:06;;;;;;;;;;;16.60;99.90;;;;;;5053320;28;20388;-71
2022/08/06 05:18:38;;;;;;;;;;;16.60;99.90;;;;;;5052933;28;19916;-72
2022/08/06 05:21:05;;;;;;;;;;;16.60;99.90;;;;;;5052941;28;19909;-71
2022/08/06 05:23:36;;;;;;;;;;;16.60;99.90;;;;;;5050734;28;19938;-71
2022/08/06 05:26:02;;;;;;;;;;;16.60;99.90;;;;;;5053085;28;19951;-72
2022/08/06 05:28:27;;;;;;;;;;;16.60;99.90;;;;;;5052652;28;20370;-72
2022/08/06 05:30:54;;;;;;;;;;;16.60;99.90;;;;;;5050855;28;19908;-72
2022/08/06 05:33:23;;;;;;;;;;;16.60;99.90;;;;;;5053061;28;19916;-72
2022/08/06 05:35:48;;;;;;;;;;;16.60;99.90;;;;;;5051242;28;19912;-71
2022/08/06 05:38:14;;;;;;;;;;;16.60;99.90;;;;;;5052528;28;20282;-72
2022/08/06 05:40:39;;;;;;;;;;;16.60;99.90;;;;;;5052815;28;20290;-72
2022/08/06 05:43:05;;;;;;;;;;;16.50;99.90;;;;;;5051728;28;19908;-71
2022/08/06 05:45:31;;;;;;;;;;;16.60;99.90;;;;;;5045495;28;19970;-72
2022/08/06 05:47:58;;;;;;;;;;;16.60;99.90;;;;;;5052255;28;20377;-72
2022/08/06 05:50:28;;;;;;;;;;;16.50;99.90;;;;;;5052330;28;20296;-72
2022/08/06 05:52:56;;;;;;;;;;;16.60;99.90;;;;;;5052001;28;19909;-72
2022/08/06 05:55:25;;;;;;;;;;;16.60;99.90;;;;;;5050916;28;19936;-72
2022/08/06 05:57:53;;;;;;;;;;;16.60;99.90;;;;;;5051972;28;19916;-72
2022/08/06 06:00:20;;;;;;;;;;;16.70;99.90;;;;;;5052085;28;19909;-72
2022/08/06 06:02:47;;;;;;;;;;;16.70;99.90;;;;;;5051210;28;19983;-73
2022/08/06 06:05:13;;;;;;;;;;;16.90;99.90;;;;;;5051467;28;20289;-73
2022/08/06 06:07:39;;;;;;;;;;;16.90;99.90;;;;;;5052063;28;19917;-73
2022/08/06 06:10:06;;;;;;;;;;;17.00;99.90;;;;;;5052111;28;20022;-73
2022/08/06 06:12:32;;;;;;;;;;;17.20;99.90;;;;;;5050981;28;19920;-73
2022/08/06 06:14:58;;;;;;;;;;;17.30;99.90;;;;;;5051337;28;19909;-73
2022/08/06 06:17:28;;;;;;;;;;;17.40;99.90;;;;;;5048145;28;20341;-73
2022/08/06 06:20:12;;;;;;;;;;;17.40;99.90;;;;;;5051829;28;19913;-73
2022/08/06 06:22:41;;;;;;;;;;;17.40;99.90;;;;;;5050493;28;20297;-73
2022/08/06 06:25:10;;;;;;;;;;;17.60;99.90;;;;;;5051219;28;20046;-73
2022/08/06 06:27:35;;;;;;;;;;;17.40;99.90;;;;;;5050694;28;20301;-73
2022/08/06 06:30:03;;;;;;;;;;;17.30;99.90;;;;;;5047315;28;19913;-73
2022/08/06 06:32:47;;;;;;;;;;;17.40;99.90;;;;;;5048258;28;19908;-73
2022/08/06 06:35:27;;;;;;;;;;;17.50;99.90;;;;;;5050838;28;19908;-73
2022/08/06 06:37:59;;;;;;;;;;;17.70;99.90;;;;;;5046251;28;19999;-73
2022/08/06 06:40:38;;;;;;;;;;;17.70;99.90;;;;;;5051283;28;19913;-73
2022/08/06 06:43:09;;;;;;;;;;;17.90;99.90;;;;;;5050643;28;19909;-73
2022/08/06 06:45:42;;;;;;;;;;;17.70;99.90;;;;;;5051307;28;20377;-73
2022/08/06 06:48:12;;;;;;;;;;;17.70;99.90;;;;;;5050588;28;20273;-73
2022/08/06 06:50:41;;;;;;;;;;;17.90;99.90;;;;;;5050058;28;20373;-73
2022/08/06 06:53:09;;;;;;;;;;;18.00;99.90;;;;;;5049715;28;19909;-73
2022/08/06 06:55:38;;;;;;;;;;;18.20;99.90;;;;;;5050857;28;20374;-73
2022/08/06 06:58:06;;;;;;;;;;;18.60;99.90;;;;;;5050846;28;19958;-73
2022/08/06 07:00:33;;;;;;;;;;;18.40;99.90;;;;;;5050880;28;19951;-73
2022/08/06 07:02:59;;;;;;;;;;;18.20;99.90;;;;;;5053851;28;19916;-74
2022/08/06 07:05:25;;;;;;;;;;;18.50;99.90;;;;;;5051003;28;19916;-71
2022/08/06 07:07:51;;;;;;;;;;;18.70;99.90;;;;;;5050583;28;19926;-71
2022/08/06 07:10:18;;;;;;;;;;;18.60;99.90;;;;;;5050978;28;19909;-71
2022/08/06 07:12:44;;;;;;;;;;;18.40;99.90;;;;;;5048842;28;19948;-71
2022/08/06 07:15:11;;;;;;;;;;;18.60;99.90;;;;;;5050345;28;20410;-73
2022/08/06 07:17:37;;;;;;;;;;;19.10;99.90;;;;;;5049927;28;19920;-72
2022/08/06 07:20:07;;;;;;;;;;;19.00;99.90;;;;;;5038609;28;20290;-72
2022/08/06 07:22:33;;;;;;;;;;;18.90;99.90;;;;;;5050082;28;19995;-72
2022/08/06 07:25:00;;;;;;;;;;;18.90;99.90;;;;;;5050109;28;19909;-72
2022/08/06 07:27:45;;;;;;;;;;;19.00;99.90;;;;;;5050542;28;19908;-72
2022/08/06 07:30:12;;;;;;;;;;;19.20;99.90;;;;;;5044812;28;19916;-73
2022/08/06 07:32:38;;;;;;;;;;;20.50;99.90;;;;;;5049823;28;19959;-73
2022/08/06 07:35:05;;;;;;;;;;;20.70;99.90;;;;;;5050013;28;19909;-72
2022/08/06 07:37:31;;;;;;;;;;;20.80;99.30;;;;;;5050641;28;19916;-73
2022/08/06 07:39:57;;;;;;;;;;;20.10;99.90;;;;;;5050452;28;19912;-73
2022/08/06 07:42:24;;;;;;;;;;;21.00;99.50;;;;;;5043236;28;19912;-72
2022/08/06 07:44:51;;;;;;;;;;;20.60;99.80;;;;;;5041452;28;19992;-73
2022/08/06 07:47:21;;;;;;;;;;;21.30;99.90;;;;;;5048851;28;19912;-72
2022/08/06 07:49:50;;;;;;;;;;;21.70;99.30;;;;;;5044350;28;19909;-73
2022/08/06 07:52:15;;;;;;;;;;;20.60;98.50;;;;;;5050023;28;19913;-72
2022/08/06 07:54:41;;;;;;;;;;;19.50;99.90;;;;;;5050056;28;19919;-72
2022/08/06 07:57:07;;;;;;;;;;;20.30;99.90;;;;;;5050515;28;19909;-73
2022/08/06 07:59:33;;;;;;;;;;;20.10;99.90;;;;;;5043667;28;19913;-73
2022/08/06 08:02:00;;;;;;;;;;;19.50;99.90;;;;;;5049714;28;19909;-73
2022/08/06 08:07:11;;;;;;;;;;;19.10;99.90;;;;;;5050906;28;19916;-72
2022/08/06 08:09:37;;;;;;;;;;;19.30;99.90;;;;;;5050400;28;19916;-73
2022/08/06 08:12:03;;;;;;;;;;;19.50;99.90;;;;;;5047952;28;20286;-72
2022/08/06 08:14:28;;;;;;;;;;;18.80;99.90;;;;;;5049961;28;19909;-73
2022/08/06 08:16:54;;;;;;;;;;;20.00;99.90;;;;;;5048228;28;19995;-73
2022/08/06 08:19:23;;;;;;;;;;;19.80;99.90;;;;;;5051153;28;19913;-73
2022/08/06 08:21:50;;;;;;;;;;;20.60;99.90;;;;;;5051291;28;20442;-73
2022/08/06 08:24:15;;;;;;;;;;;20.40;99.90;;;;;;5053415;28;19940;-73
2022/08/06 08:26:41;;;;;;;;;;;19.70;99.90;;;;;;5053797;28;19919;-73
2022/08/06 08:29:09;;;;;;;;;;;20.60;99.50;;;;;;5053134;28;19978;-73
2022/08/06 08:31:35;;;;;;;;;;;20.80;99.10;;;;;;5054747;28;19913;-73
2022/08/06 08:34:01;;;;;;;;;;;21.70;95.40;;;;;;5053092;28;20335;-73
2022/08/06 08:36:26;;;;;;;;;;;21.90;97.10;;;;;;5047006;28;19913;-72
2022/08/06 08:38:56;;;;;;;;;;;21.30;96.30;;;;;;5047456;28;20021;-72
2022/08/06 08:41:24;;;;;;;;;;;20.90;97.90;;;;;;5051738;28;20126;-73
2022/08/06 08:43:56;;;;;;;;;;;23.10;93.90;;;;;;5052715;28;19908;-73
2022/08/06 08:46:22;;;;;;;;;;;23.00;93.80;;;;;;5048875;28;19928;-73
2022/08/06 08:48:48;;;;;;;;;;;23.20;94.00;;;;;;5053750;28;19909;-73
2022/08/06 08:51:14;;;;;;;;;;;23.40;91.70;;;;;;5053292;28;19915;-73
2022/08/06 08:53:47;;;;;;;;;;;24.10;91.30;;;;;;5052908;28;20287;-73
2022/08/06 08:56:13;;;;;;;;;;;24.90;88.50;;;;;;5053688;28;19931;-73
2022/08/06 08:58:40;;;;;;;;;;;26.30;90.30;;;;;;5053075;28;20417;-73
2022/08/06 09:01:08;;;;;;;;;;;25.00;87.30;;;;;;5053921;28;19908;-73
2022/08/06 09:03:34;;;;;;;;;;;26.00;87.60;;;;;;5052203;28;19908;-73
2022/08/06 09:06:01;;;;;;;;;;;26.70;84.90;;;;;;5053353;28;20003;-73
2022/08/06 09:08:26;;;;;;;;;;;25.40;80.50;;;;;;5053008;28;20488;-72
2022/08/06 09:10:54;;;;;;;;;;;26.20;85.40;;;;;;5052651;28;20212;-73
2022/08/06 09:13:19;;;;;;;;;;;27.80;78.00;;;;;;5051988;28;19909;-72
2022/08/06 09:15:45;;;;;;;;;;;28.30;76.70;;;;;;5053173;28;20326;-74
2022/08/06 09:18:10;;;;;;;;;;;27.90;69.40;;;;;;5053344;28;20382;-74
2022/08/06 09:20:37;;;;;;;;;;;24.10;80.00;;;;;;5053228;28;20286;-74
2022/08/06 09:23:03;;;;;;;;;;;24.30;84.40;;;;;;5052541;28;20015;-73
2022/08/06 09:25:34;;;;;;;;;;;23.60;82.50;;;;;;5046200;28;19909;-73
2022/08/06 09:28:00;;;;;;;;;;;22.20;86.40;;;;;;5046756;28;19912;-73
2022/08/06 09:30:26;;;;;;;;;;;23.60;84.00;;;;;;5056966;28;20323;-74
2022/08/06 09:32:55;;;;;;;;;;;22.30;86.10;;;;;;5053281;28;19909;-73
2022/08/06 09:35:22;;;;;;;;;;;22.00;89.60;;;;;;5046750;28;20346;-74
2022/08/06 09:37:48;;;;;;;;;;;21.70;90.40;;;;;;5052667;28;19908;-74
2022/08/06 09:40:15;;;;;;;;;;;21.30;90.20;;;;;;5053639;28;19913;-74
2022/08/06 09:42:46;;;;;;;;;;;21.30;91.20;;;;;;5046651;28;19909;-74
2022/08/06 09:45:12;;;;;;;;;;;21.20;91.20;;;;;;5047574;28;20012;-74
2022/08/06 09:47:38;;;;;;;;;;;21.10;90.90;;;;;;5052388;28;19908;-73
2022/08/06 09:50:07;;;;;;;;;;;21.20;90.40;;;;;;5054022;28;20415;-74
2022/08/06 09:52:32;;;;;;;;;;;21.10;90.30;;;;;;5052862;28;19956;-74
2022/08/06 09:54:58;;;;;;;;;;;21.10;89.80;;;;;;5052696;28;19962;-74
2022/08/06 09:57:24;;;;;;;;;;;20.80;91.40;;;;;;5045689;28;19913;-74
2022/08/06 09:59:50;;;;;;;;;;;20.70;92.00;;;;;;5047060;28;20437;-75
2022/08/06 10:02:17;;;;;;;;;;;20.70;91.90;;;;;;5052517;28;19992;-73
2022/08/06 10:04:43;;;;;;;;;;;21.00;91.70;;;;;;5052780;28;19908;-72
2022/08/06 10:07:09;;;;;;;;;;;21.10;93.00;;;;;;5051344;28;19917;-73
2022/08/06 10:09:37;;;;;;;;;;;20.90;90.70;;;;;;5052732;28;19916;-73
2022/08/06 10:12:16;;;;;;;;;;;21.00;91.20;;;;;;5053283;28;19909;-74
2022/08/06 10:14:41;;;;;;;;;;;21.10;90.90;;;;;;5047651;28;19913;-73
2022/08/06 10:17:11;;;;;;;;;;;21.30;90.30;;;;;;5053094;28;19944;-74
2022/08/06 10:19:38;;;;;;;;;;;21.90;89.60;;;;;;5053244;28;19913;-74
2022/08/06 10:22:11;;;;;;;;;;;24.20;86.60;;;;;;5052843;28;19908;-74
2022/08/06 10:24:41;;;;;;;;;;;25.70;83.10;;;;;;5052994;28;19916;-74
2022/08/06 10:27:07;;;;;;;;;;;23.90;81.60;;;;;;5052596;28;20050;-73
2022/08/06 10:29:34;;;;;;;;;;;22.70;84.50;;;;;;5052426;28;19944;-73
2022/08/06 10:32:01;;;;;;;;;;;22.30;88.60;;;;;;5047845;28;19991;-74
2022/08/06 10:34:27;;;;;;;;;;;22.10;90.30;;;;;;5047234;28;19909;-73
2022/08/06 10:37:02;;;;;;;;;;;21.60;87.60;;;;;;5052212;28;19955;-73
2022/08/06 10:39:31;;;;;;;;;;;21.70;89.60;;;;;;5052175;28;19913;-74
2022/08/06 10:41:57;;;;;;;;;;;21.60;88.90;;;;;;5050787;28;19935;-73
2022/08/06 10:44:22;;;;;;;;;;;21.50;89.30;;;;;;5049642;28;20389;-74
2022/08/06 10:46:51;;;;;;;;;;;21.30;90.50;;;;;;5046825;28;19959;-73
2022/08/06 10:49:18;;;;;;;;;;;21.40;88.10;;;;;;5050952;28;19909;-73
2022/08/06 10:51:44;;;;;;;;;;;21.50;89.40;;;;;;5051767;28;20282;-74
2022/08/06 10:54:10;;;;;;;;;;;21.80;89.80;;;;;;5051319;28;19917;-73
2022/08/06 10:56:36;;;;;;;;;;;22.80;90.40;;;;;;5051812;28;20332;-73
2022/08/06 10:59:02;;;;;;;;;;;22.70;90.00;;;;;;5051031;28;19921;-74
2022/08/06 11:01:27;;;;;;;;;;;22.30;86.10;;;;;;5053010;28;20259;-75
2022/08/06 11:04:01;;;;;;;;;;;21.70;88.50;;;;;;5052559;28;19909;-74
2022/08/06 11:06:42;;;;;;;;;;;21.70;90.20;;;;;;5052012;28;20119;-75
2022/08/06 11:09:20;;;;;;;;;;;21.70;90.00;;;;;;5051047;28;19917;-75
2022/08/06 11:11:51;;;;;;;;;;;22.00;88.80;;;;;;5051086;28;19916;-75
2022/08/06 11:14:17;;;;;;;;;;;21.60;87.90;;;;;;5048741;28;19916;-74
2022/08/06 11:16:52;;;;;;;;;;;21.90;89.80;;;;;;5050198;28;19912;-75
2022/08/06 11:19:18;;;;;;;;;;;22.30;88.50;;;;;;5045646;28;19936;-75
2022/08/06 11:21:45;;;;;;;;;;;22.30;86.00;;;;;;5051505;28;20357;-75
2022/08/06 11:24:12;;;;;;;;;;;22.40;86.50;;;;;;5051027;28;19908;-75
2022/08/06 11:26:39;;;;;;;;;;;22.10;88.70;;;;;;5051884;28;19999;-75
2022/08/06 11:29:09;;;;;;;;;;;22.70;85.20;;;;;;5051396;28;20403;-75
2022/08/06 11:31:36;;;;;;;;;;;24.50;84.20;;;;;;5051186;28;20305;-75
2022/08/06 11:34:03;;;;;;;;;;;25.00;82.10;;;;;;5051269;28;20302;-75
2022/08/06 11:36:41;;;;;;;;;;;24.90;78.60;;;;;;5051727;28;19913;-75
2022/08/06 11:39:07;;;;;;;;;;;24.60;79.70;;;;;;5051610;28;20005;-75
2022/08/06 11:41:43;;;;;;;;;;;23.60;80.00;;;;;;5051485;28;19959;-75
2022/08/06 11:44:09;;;;;;;;;;;24.20;81.60;;;;;;5050869;28;19915;-76
2022/08/06 11:46:35;;;;;;;;;;;23.50;80.30;;;;;;5050098;28;19912;-75
2022/08/06 11:49:03;;;;;;;;;;;23.10;82.50;;;;;;5051428;28;19913;-75
2022/08/06 11:51:42;;;;;;;;;;;22.30;83.80;;;;;;5051629;28;20299;-74
2022/08/06 11:54:20;;;;;;;;;;;22.00;83.70;;;;;;5052957;28;20256;-74
2022/08/06 11:57:06;;;;;;;;;;;23.20;84.00;;;;;;5055354;28;19961;-75
2022/08/06 11:59:34;;;;;;;;;;;25.30;76.60;;;;;;5050419;28;20290;-75
2022/08/06 12:02:00;;;;;;;;;;;25.70;74.80;;;;;;5052233;28;19909;-75
2022/08/06 12:04:34;;;;;;;;;;;26.00;75.40;;;;;;5054188;28;20310;-75
2022/08/06 12:07:20;;;;;;;;;;;25.80;77.00;;;;;;5054024;28;19908;-75
2022/08/06 12:09:47;;;;;;;;;;;25.70;76.60;;;;;;5054154;28;19999;-75
2022/08/06 12:12:31;;;;;;;;;;;26.20;75.00;;;;;;5054855;28;20241;-75
2022/08/06 12:14:58;;;;;;;;;;;27.10;75.80;;;;;;5048986;28;19909;-75
2022/08/06 12:17:25;;;;;;;;;;;26.80;71.20;;;;;;5055028;28;19920;-75
2022/08/06 12:19:52;;;;;;;;;;;27.10;69.70;;;;;;5055157;28;19966;-75
2022/08/06 12:22:18;;;;;;;;;;;26.00;71.30;;;;;;5054442;28;19912;-75
2022/08/06 12:24:44;;;;;;;;;;;25.20;74.60;;;;;;5055120;28;20375;-75
2022/08/06 12:27:10;;;;;;;;;;;24.70;73.80;;;;;;5054845;28;20435;-76
2022/08/06 12:29:36;;;;;;;;;;;25.00;72.90;;;;;;5040081;28;20239;-73
2022/08/06 12:32:22;;;;;;;;;;;24.20;76.60;;;;;;5064171;28;19919;-73
2022/08/06 12:34:48;;;;;;;;;;;23.80;80.20;;;;;;5059503;28;19917;-75
2022/08/06 12:37:14;;;;;;;;;;;23.00;78.90;;;;;;5054671;28;19909;-74
2022/08/06 12:42:24;;;;;;;;;;;25.90;74.20;;;;;;5054500;28;19920;-74
2022/08/06 12:44:50;;;;;;;;;;;27.20;72.10;;;;;;5053758;28;19916;-74
2022/08/06 12:47:16;;;;;;;;;;;26.10;68.80;;;;;;5054203;28;19909;-74
2022/08/06 12:49:41;;;;;;;;;;;26.80;69.80;;;;;;5054187;28;19920;-74
2022/08/06 12:52:10;;;;;;;;;;;26.70;66.70;;;;;;5054016;28;19908;-75
2022/08/06 12:54:36;;;;;;;;;;;27.00;67.60;;;;;;5053892;28;19909;-75
2022/08/06 12:57:02;;;;;;;;;;;27.00;70.50;;;;;;5054420;28;19913;-75
2022/08/06 12:59:27;;;;;;;;;;;28.60;64.40;;;;;;5053773;28;20464;-76
2022/08/06 13:01:53;;;;;;;;;;;30.20;59.60;;;;;;5058868;28;19964;-75
2022/08/06 13:04:19;;;;;;;;;;;29.30;59.30;;;;;;5053000;28;19909;-74
2022/08/06 13:06:45;;;;;;;;;;;30.50;57.80;;;;;;5054019;28;20385;-74
2022/08/06 13:09:11;;;;;;;;;;;29.60;59.60;;;;;;5054435;28;19962;-74
2022/08/06 13:11:36;;;;;;;;;;;28.30;65.10;;;;;;5053566;28;19913;-75
2022/08/06 13:14:10;;;;;;;;;;;26.70;64.80;;;;;;5052950;28;20381;-75
2022/08/06 13:16:39;;;;;;;;;;;25.40;72.20;;;;;;5053696;28;19936;-74
2022/08/06 13:19:10;;;;;;;;;;;28.80;61.30;;;;;;5053576;28;19963;-75
2022/08/06 13:21:36;;;;;;;;;;;27.70;63.50;;;;;;5051820;28;19909;-75
2022/08/06 13:24:02;;;;;;;;;;;24.70;72.20;;;;;;5053232;28;19913;-75
2022/08/06 13:26:28;;;;;;;;;;;24.20;73.90;;;;;;5053686;28;20424;-75
2022/08/06 13:29:10;;;;;;;;;;;24.50;73.40;;;;;;5053015;28;19948;-75
2022/08/06 13:31:37;;;;;;;;;;;28.70;62.60;;;;;;5049020;28;19909;-74
2022/08/06 13:34:04;;;;;;;;;;;26.00;67.30;;;;;;5052997;28;19915;-75
2022/08/06 13:36:30;;;;;;;;;;;24.90;71.30;;;;;;5053802;28;19966;-76
2022/08/06 13:38:56;;;;;;;;;;;29.30;65.10;;;;;;5053397;28;19919;-76
2022/08/06 13:41:31;;;;;;;;;;;32.00;58.90;;;;;;5053333;28;19913;-76
2022/08/06 13:43:56;;;;;;;;;;;29.90;59.70;;;;;;5052844;28;19916;-75
2022/08/06 13:46:25;;;;;;;;;;;27.60;64.80;;;;;;5054325;28;19909;-75
2022/08/06 13:48:51;;;;;;;;;;;26.40;66.10;;;;;;5053295;28;19916;-75
2022/08/06 13:51:17;;;;;;;;;;;25.40;66.30;;;;;;5051989;28;19908;-75
2022/08/06 13:53:43;;;;;;;;;;;24.20;71.60;;;;;;5052390;28;19909;-74
2022/08/06 13:56:09;;;;;;;;;;;24.20;72.80;;;;;;5053303;28;19908;-75
2022/08/06 13:58:34;;;;;;;;;;;24.90;68.90;;;;;;5052865;28;19913;-74
2022/08/06 14:01:00;;;;;;;;;;;24.70;73.00;;;;;;5052572;28;19909;-75
2022/08/06 14:03:26;;;;;;;;;;;25.30;69.90;;;;;;5052471;28;19909;-75
2022/08/06 14:05:52;;;;;;;;;;;25.50;72.90;;;;;;5052857;28;20365;-75
2022/08/06 14:08:18;;;;;;;;;;;26.60;69.70;;;;;;5052742;28;19924;-75
2022/08/06 14:10:43;;;;;;;;;;;28.50;65.10;;;;;;5052836;28;19913;-74
2022/08/06 14:13:18;;;;;;;;;;;27.00;68.50;;;;;;5051917;28;19909;-74
2022/08/06 14:15:43;;;;;;;;;;;25.60;69.30;;;;;;5052486;28;19915;-74
2022/08/06 14:18:09;;;;;;;;;;;24.50;72.20;;;;;;5052194;28;19908;-75
2022/08/06 14:20:34;;;;;;;;;;;24.20;72.50;;;;;;5052736;28;19913;-74
2022/08/06 14:23:00;;;;;;;;;;;24.30;77.90;;;;;;5051976;28;20314;-74
2022/08/06 14:25:25;;;;;;;;;;;24.40;74.00;;;;;;5051893;28;19996;-74